sensor_id;sensor_type;location;lat;lon;timestamp;temperature;humidity
70947;DHT22;58605;48.700;8.760;2023-08-21T00:00:10;21.40;90.40
70947;DHT22;58605;48.700;8.760;2023-08-21T00:02:37;21.40;90.50
70947;DHT22;58605;48.700;8.760;2023-08-21T00:05:04;21.40;90.60
70947;DHT22;58605;48.700;8.760;2023-08-21T00:07:30;21.30;90.50
70947;DHT22;58605;48.700;8.760;2023-08-21T00:09:56;21.20;90.60
70947;DHT22;58605;48.700;8.760;2023-08-21T00:12:24;21.20;90.70
70947;DHT22;58605;48.700;8.760;2023-08-21T00:14:50;21.20;90.70
70947;DHT22;58605;48.700;8.760;2023-08-21T00:17:16;21.20;90.90
70947;DHT22;58605;48.700;8.760;2023-08-21T00:19:42;21.20;91.00
70947;DHT22;58605;48.700;8.760;2023-08-21T00:22:08;21.10;90.80
70947;DHT22;58605;48.700;8.760;2023-08-21T00:24:34;21.10;90.80
70947;DHT22;58605;48.700;8.760;2023-08-21T00:27:00;21.00;90.80
70947;DHT22;58605;48.700;8.760;2023-08-21T00:29:28;20.90;90.80
70947;DHT22;58605;48.700;8.760;2023-08-21T00:31:54;20.90;91.00
70947;DHT22;58605;48.700;8.760;2023-08-21T00:34:20;20.90;91.20
70947;DHT22;58605;48.700;8.760;2023-08-21T00:36:46;20.90;91.00
70947;DHT22;58605;48.700;8.760;2023-08-21T00:39:12;20.90;91.00
70947;DHT22;58605;48.700;8.760;2023-08-21T00:41:38;20.90;90.90
70947;DHT22;58605;48.700;8.760;2023-08-21T00:44:04;20.90;91.10
70947;DHT22;58605;48.700;8.760;2023-08-21T00:46:32;20.90;91.10
70947;DHT22;58605;48.700;8.760;2023-08-21T00:48:58;20.80;91.20
70947;DHT22;58605;48.700;8.760;2023-08-21T00:51:25;20.80;91.10
70947;DHT22;58605;48.700;8.760;2023-08-21T00:53:51;20.70;90.80
70947;DHT22;58605;48.700;8.760;2023-08-21T00:56:17;20.60;90.90
70947;DHT22;58605;48.700;8.760;2023-08-21T00:58:43;20.60;91.00
70947;DHT22;58605;48.700;8.760;2023-08-21T01:01:10;20.60;91.00
70947;DHT22;58605;48.700;8.760;2023-08-21T01:03:38;20.60;91.20
70947;DHT22;58605;48.700;8.760;2023-08-21T01:06:04;20.60;91.10
70947;DHT22;58605;48.700;8.760;2023-08-21T01:08:38;20.60;91.30
70947;DHT22;58605;48.700;8.760;2023-08-21T01:11:12;20.60;91.20
70947;DHT22;58605;48.700;8.760;2023-08-21T01:13:48;20.60;91.20
70947;DHT22;58605;48.700;8.760;2023-08-21T01:16:20;20.60;91.10
70947;DHT22;58605;48.700;8.760;2023-08-21T01:18:49;20.50;91.10
70947;DHT22;58605;48.700;8.760;2023-08-21T01:21:16;20.60;91.30
70947;DHT22;58605;48.700;8.760;2023-08-21T01:23:43;20.60;91.30
70947;DHT22;58605;48.700;8.760;2023-08-21T01:26:10;20.60;91.10
70947;DHT22;58605;48.700;8.760;2023-08-21T01:29:05;20.50;91.00
70947;DHT22;58605;48.700;8.760;2023-08-21T01:31:34;20.50;90.90
70947;DHT22;58605;48.700;8.760;2023-08-21T01:34:05;20.40;91.30
70947;DHT22;58605;48.700;8.760;2023-08-21T01:36:32;20.40;91.60
70947;DHT22;58605;48.700;8.760;2023-08-21T01:39:01;20.40;91.50
70947;DHT22;58605;48.700;8.760;2023-08-21T01:41:27;20.40;91.30
70947;DHT22;58605;48.700;8.760;2023-08-21T01:43:53;20.40;91.50
70947;DHT22;58605;48.700;8.760;2023-08-21T01:46:19;20.40;91.50
70947;DHT22;58605;48.700;8.760;2023-08-21T01:48:46;20.40;91.40
70947;DHT22;58605;48.700;8.760;2023-08-21T01:51:14;20.40;91.40
70947;DHT22;58605;48.700;8.760;2023-08-21T01:53:41;20.40;91.40
70947;DHT22;58605;48.700;8.760;2023-08-21T01:56:08;20.40;91.30
70947;DHT22;58605;48.700;8.760;2023-08-21T01:58:34;20.30;91.10
70947;DHT22;58605;48.700;8.760;2023-08-21T02:01:00;20.20;91.30
70947;DHT22;58605;48.700;8.760;2023-08-21T02:03:26;20.30;91.50
70947;DHT22;58605;48.700;8.760;2023-08-21T02:05:55;20.30;91.60
70947;DHT22;58605;48.700;8.760;2023-08-21T02:08:30;20.40;91.40
70947;DHT22;58605;48.700;8.760;2023-08-21T02:10:56;20.30;91.30
70947;DHT22;58605;48.700;8.760;2023-08-21T02:13:23;20.30;91.30
70947;DHT22;58605;48.700;8.760;2023-08-21T02:15:50;20.30;91.40
70947;DHT22;58605;48.700;8.760;2023-08-21T02:18:16;20.30;91.40
70947;DHT22;58605;48.700;8.760;2023-08-21T02:20:42;20.20;91.20
70947;DHT22;58605;48.700;8.760;2023-08-21T02:23:08;20.20;91.30
70947;DHT22;58605;48.700;8.760;2023-08-21T02:25:35;20.10;91.50
70947;DHT22;58605;48.700;8.760;2023-08-21T02:28:01;20.10;91.50
70947;DHT22;58605;48.700;8.760;2023-08-21T02:30:29;20.10;91.60
70947;DHT22;58605;48.700;8.760;2023-08-21T02:32:55;20.00;91.20
70947;DHT22;58605;48.700;8.760;2023-08-21T02:35:21;20.00;91.40
70947;DHT22;58605;48.700;8.760;2023-08-21T02:37:47;20.10;91.70
70947;DHT22;58605;48.700;8.760;2023-08-21T02:40:13;20.10;91.70
70947;DHT22;58605;48.700;8.760;2023-08-21T02:42:39;20.10;91.60
70947;DHT22;58605;48.700;8.760;2023-08-21T02:45:06;20.00;91.40
70947;DHT22;58605;48.700;8.760;2023-08-21T02:47:38;20.00;91.60
70947;DHT22;58605;48.700;8.760;2023-08-21T02:50:05;20.00;91.70
70947;DHT22;58605;48.700;8.760;2023-08-21T02:52:31;19.90;91.10
70947;DHT22;58605;48.700;8.760;2023-08-21T02:54:57;19.90;91.60
70947;DHT22;58605;48.700;8.760;2023-08-21T02:57:24;19.90;91.30
70947;DHT22;58605;48.700;8.760;2023-08-21T02:59:50;19.80;91.40
70947;DHT22;58605;48.700;8.760;2023-08-21T03:02:17;19.90;91.60
70947;DHT22;58605;48.700;8.760;2023-08-21T03:04:45;19.90;91.60
70947;DHT22;58605;48.700;8.760;2023-08-21T03:07:11;19.90;91.50
70947;DHT22;58605;48.700;8.760;2023-08-21T03:09:38;19.90;91.60
70947;DHT22;58605;48.700;8.760;2023-08-21T03:12:05;19.80;91.30
70947;DHT22;58605;48.700;8.760;2023-08-21T03:14:31;19.80;91.40
70947;DHT22;58605;48.700;8.760;2023-08-21T03:16:57;19.70;91.10
70947;DHT22;58605;48.700;8.760;2023-08-21T03:19:23;19.60;91.20
70947;DHT22;58605;48.700;8.760;2023-08-21T03:21:51;19.60;91.60
70947;DHT22;58605;48.700;8.760;2023-08-21T03:24:18;19.70;91.70
70947;DHT22;58605;48.700;8.760;2023-08-21T03:26:44;19.60;91.40
70947;DHT22;58605;48.700;8.760;2023-08-21T03:29:10;19.60;91.70
70947;DHT22;58605;48.700;8.760;2023-08-21T03:31:36;19.50;91.50
70947;DHT22;58605;48.700;8.760;2023-08-21T03:34:02;19.50;91.70
70947;DHT22;58605;48.700;8.760;2023-08-21T03:36:28;19.40;91.60
70947;DHT22;58605;48.700;8.760;2023-08-21T03:38:59;19.40;91.60
70947;DHT22;58605;48.700;8.760;2023-08-21T03:41:25;19.40;91.90
70947;DHT22;58605;48.700;8.760;2023-08-21T03:43:51;19.40;91.70
70947;DHT22;58605;48.700;8.760;2023-08-21T03:46:17;19.40;91.70
70947;DHT22;58605;48.700;8.760;2023-08-21T03:48:43;19.40;91.70
70947;DHT22;58605;48.700;8.760;2023-08-21T03:51:09;19.50;92.00
70947;DHT22;58605;48.700;8.760;2023-08-21T03:53:36;19.50;91.90
70947;DHT22;58605;48.700;8.760;2023-08-21T03:56:03;19.50;91.70
70947;DHT22;58605;48.700;8.760;2023-08-21T03:58:30;19.40;91.60
70947;DHT22;58605;48.700;8.760;2023-08-21T04:00:56;19.40;91.70
70947;DHT22;58605;48.700;8.760;2023-08-21T04:03:29;19.30;91.60
70947;DHT22;58605;48.700;8.760;2023-08-21T04:05:55;19.30;91.70
70947;DHT22;58605;48.700;8.760;2023-08-21T04:08:22;19.40;92.00
70947;DHT22;58605;48.700;8.760;2023-08-21T04:10:48;19.40;92.00
70947;DHT22;58605;48.700;8.760;2023-08-21T04:13:16;19.40;92.00
70947;DHT22;58605;48.700;8.760;2023-08-21T04:15:45;19.40;91.90
70947;DHT22;58605;48.700;8.760;2023-08-21T04:18:11;19.40;91.90
70947;DHT22;58605;48.700;8.760;2023-08-21T04:20:37;19.40;91.80
70947;DHT22;58605;48.700;8.760;2023-08-21T04:23:04;19.40;92.00
70947;DHT22;58605;48.700;8.760;2023-08-21T04:25:30;19.40;92.20
70947;DHT22;58605;48.700;8.760;2023-08-21T04:27:56;19.40;92.00
70947;DHT22;58605;48.700;8.760;2023-08-21T04:30:23;19.30;91.90
70947;DHT22;58605;48.700;8.760;2023-08-21T04:32:49;19.30;91.70
70947;DHT22;58605;48.700;8.760;2023-08-21T04:35:15;19.30;92.00
70947;DHT22;58605;48.700;8.760;2023-08-21T04:37:43;19.30;91.80
70947;DHT22;58605;48.700;8.760;2023-08-21T04:40:12;19.20;91.70
70947;DHT22;58605;48.700;8.760;2023-08-21T04:42:38;19.20;91.80
70947;DHT22;58605;48.700;8.760;2023-08-21T04:45:05;19.20;92.00
70947;DHT22;58605;48.700;8.760;2023-08-21T04:47:33;19.20;92.00
70947;DHT22;58605;48.700;8.760;2023-08-21T04:49:59;19.20;92.10
70947;DHT22;58605;48.700;8.760;2023-08-21T04:52:25;19.20;92.10
70947;DHT22;58605;48.700;8.760;2023-08-21T04:54:51;19.20;92.20
70947;DHT22;58605;48.700;8.760;2023-08-21T04:57:18;19.30;92.20
70947;DHT22;58605;48.700;8.760;2023-08-21T04:59:44;19.30;92.30
70947;DHT22;58605;48.700;8.760;2023-08-21T05:02:10;19.30;92.10
70947;DHT22;58605;48.700;8.760;2023-08-21T05:04:38;19.40;92.30
70947;DHT22;58605;48.700;8.760;2023-08-21T05:07:04;19.50;92.30
70947;DHT22;58605;48.700;8.760;2023-08-21T05:09:31;19.60;92.20
70947;DHT22;58605;48.700;8.760;2023-08-21T05:11:57;19.60;92.00
70947;DHT22;58605;48.700;8.760;2023-08-21T05:14:23;19.60;92.10
70947;DHT22;58605;48.700;8.760;2023-08-21T05:16:50;19.60;92.20
70947;DHT22;58605;48.700;8.760;2023-08-21T05:19:16;19.50;92.20
70947;DHT22;58605;48.700;8.760;2023-08-21T05:21:44;19.50;92.20
70947;DHT22;58605;48.700;8.760;2023-08-21T05:24:10;19.50;92.40
70947;DHT22;58605;48.700;8.760;2023-08-21T05:26:36;19.60;92.40
70947;DHT22;58605;48.700;8.760;2023-08-21T05:29:02;19.60;92.40
70947;DHT22;58605;48.700;8.760;2023-08-21T05:31:28;19.70;92.60
70947;DHT22;58605;48.700;8.760;2023-08-21T05:33:54;19.70;92.50
70947;DHT22;58605;48.700;8.760;2023-08-21T05:36:20;19.80;92.30
70947;DHT22;58605;48.700;8.760;2023-08-21T05:38:49;19.90;92.30
70947;DHT22;58605;48.700;8.760;2023-08-21T05:41:17;20.10;92.30
70947;DHT22;58605;48.700;8.760;2023-08-21T05:43:43;20.20;92.20
70947;DHT22;58605;48.700;8.760;2023-08-21T05:46:09;20.30;91.90
70947;DHT22;58605;48.700;8.760;2023-08-21T05:48:35;20.40;91.80
70947;DHT22;58605;48.700;8.760;2023-08-21T05:51:01;20.40;91.60
70947;DHT22;58605;48.700;8.760;2023-08-21T05:53:27;20.50;91.60
70947;DHT22;58605;48.700;8.760;2023-08-21T05:55:55;20.50;91.40
70947;DHT22;58605;48.700;8.760;2023-08-21T05:58:21;20.50;91.50
70947;DHT22;58605;48.700;8.760;2023-08-21T06:00:48;20.50;91.40
70947;DHT22;58605;48.700;8.760;2023-08-21T06:03:15;20.60;91.50
70947;DHT22;58605;48.700;8.760;2023-08-21T06:05:41;20.70;91.30
70947;DHT22;58605;48.700;8.760;2023-08-21T06:08:09;20.70;91.60
70947;DHT22;58605;48.700;8.760;2023-08-21T06:10:35;20.80;91.20
70947;DHT22;58605;48.700;8.760;2023-08-21T06:13:03;20.90;91.30
70947;DHT22;58605;48.700;8.760;2023-08-21T06:15:29;21.00;91.30
70947;DHT22;58605;48.700;8.760;2023-08-21T06:17:55;21.10;91.10
70947;DHT22;58605;48.700;8.760;2023-08-21T06:20:21;21.20;90.70
70947;DHT22;58605;48.700;8.760;2023-08-21T06:22:47;21.30;90.60
70947;DHT22;58605;48.700;8.760;2023-08-21T06:25:13;21.50;90.20
70947;DHT22;58605;48.700;8.760;2023-08-21T06:27:39;21.60;90.40
70947;DHT22;58605;48.700;8.760;2023-08-21T06:30:08;21.60;90.30
70947;DHT22;58605;48.700;8.760;2023-08-21T06:32:34;21.70;90.10
70947;DHT22;58605;48.700;8.760;2023-08-21T06:35:00;21.80;90.20
70947;DHT22;58605;48.700;8.760;2023-08-21T06:37:27;21.90;89.50
70947;DHT22;58605;48.700;8.760;2023-08-21T06:39:53;22.10;89.60
70947;DHT22;58605;48.700;8.760;2023-08-21T06:42:19;22.10;89.40
70947;DHT22;58605;48.700;8.760;2023-08-21T06:44:45;22.30;88.50
70947;DHT22;58605;48.700;8.760;2023-08-21T06:47:12;22.40;88.60
70947;DHT22;58605;48.700;8.760;2023-08-21T06:49:38;22.50;88.60
70947;DHT22;58605;48.700;8.760;2023-08-21T06:52:05;22.70;88.00
70947;DHT22;58605;48.700;8.760;2023-08-21T06:54:31;22.80;87.70
70947;DHT22;58605;48.700;8.760;2023-08-21T06:56:57;22.90;86.50
70947;DHT22;58605;48.700;8.760;2023-08-21T06:59:24;23.00;86.60
70947;DHT22;58605;48.700;8.760;2023-08-21T07:01:50;23.10;87.00
70947;DHT22;58605;48.700;8.760;2023-08-21T07:04:18;23.20;86.10
70947;DHT22;58605;48.700;8.760;2023-08-21T07:06:44;23.20;85.20
70947;DHT22;58605;48.700;8.760;2023-08-21T07:09:10;23.40;84.80
70947;DHT22;58605;48.700;8.760;2023-08-21T07:11:36;23.50;84.80
70947;DHT22;58605;48.700;8.760;2023-08-21T07:14:03;23.60;85.00
70947;DHT22;58605;48.700;8.760;2023-08-21T07:16:29;23.80;84.40
70947;DHT22;58605;48.700;8.760;2023-08-21T07:18:55;23.90;84.30
70947;DHT22;58605;48.700;8.760;2023-08-21T07:21:23;23.90;85.20
70947;DHT22;58605;48.700;8.760;2023-08-21T07:23:49;24.10;85.00
70947;DHT22;58605;48.700;8.760;2023-08-21T07:26:15;24.20;84.80
70947;DHT22;58605;48.700;8.760;2023-08-21T07:28:41;24.30;85.20
70947;DHT22;58605;48.700;8.760;2023-08-21T07:31:07;24.40;80.80
70947;DHT22;58605;48.700;8.760;2023-08-21T07:33:33;24.50;81.20
70947;DHT22;58605;48.700;8.760;2023-08-21T07:36:01;24.70;81.50
70947;DHT22;58605;48.700;8.760;2023-08-21T07:38:29;24.90;79.90
70947;DHT22;58605;48.700;8.760;2023-08-21T07:41:03;25.00;81.10
70947;DHT22;58605;48.700;8.760;2023-08-21T07:43:29;25.10;79.90
70947;DHT22;58605;48.700;8.760;2023-08-21T07:45:55;25.30;78.00
70947;DHT22;58605;48.700;8.760;2023-08-21T07:48:21;25.40;77.50
70947;DHT22;58605;48.700;8.760;2023-08-21T07:50:51;25.50;78.10
70947;DHT22;58605;48.700;8.760;2023-08-21T07:53:18;25.60;75.30
70947;DHT22;58605;48.700;8.760;2023-08-21T07:55:45;25.70;76.00
70947;DHT22;58605;48.700;8.760;2023-08-21T07:58:12;25.80;76.80
70947;DHT22;58605;48.700;8.760;2023-08-21T08:00:38;25.80;75.10
70947;DHT22;58605;48.700;8.760;2023-08-21T08:03:04;25.70;76.10
70947;DHT22;58605;48.700;8.760;2023-08-21T08:05:31;25.50;76.50
70947;DHT22;58605;48.700;8.760;2023-08-21T08:07:57;25.30;77.10
70947;DHT22;58605;48.700;8.760;2023-08-21T08:10:24;25.20;77.50
70947;DHT22;58605;48.700;8.760;2023-08-21T08:12:51;25.10;77.80
70947;DHT22;58605;48.700;8.760;2023-08-21T08:15:18;25.00;78.40
70947;DHT22;58605;48.700;8.760;2023-08-21T08:17:44;25.00;78.50
70947;DHT22;58605;48.700;8.760;2023-08-21T08:20:11;25.00;78.50
70947;DHT22;58605;48.700;8.760;2023-08-21T08:22:37;25.00;78.50
70947;DHT22;58605;48.700;8.760;2023-08-21T08:25:04;25.00;78.00
70947;DHT22;58605;48.700;8.760;2023-08-21T08:27:32;25.10;77.40
70947;DHT22;58605;48.700;8.760;2023-08-21T08:29:59;25.70;76.00
70947;DHT22;58605;48.700;8.760;2023-08-21T08:32:26;25.90;74.60
70947;DHT22;58605;48.700;8.760;2023-08-21T08:34:52;25.90;73.60
70947;DHT22;58605;48.700;8.760;2023-08-21T08:37:18;26.00;74.20
70947;DHT22;58605;48.700;8.760;2023-08-21T08:39:46;25.90;74.30
70947;DHT22;58605;48.700;8.760;2023-08-21T08:42:12;25.70;75.20
70947;DHT22;58605;48.700;8.760;2023-08-21T08:44:39;25.60;75.90
70947;DHT22;58605;48.700;8.760;2023-08-21T08:47:08;25.50;75.90
70947;DHT22;58605;48.700;8.760;2023-08-21T08:49:35;25.50;75.10
70947;DHT22;58605;48.700;8.760;2023-08-21T08:52:01;25.50;75.80
70947;DHT22;58605;48.700;8.760;2023-08-21T08:54:27;25.60;74.70
70947;DHT22;58605;48.700;8.760;2023-08-21T08:56:55;26.10;73.60
70947;DHT22;58605;48.700;8.760;2023-08-21T08:59:22;26.20;72.70
70947;DHT22;58605;48.700;8.760;2023-08-21T09:01:48;26.60;71.00
70947;DHT22;58605;48.700;8.760;2023-08-21T09:04:16;26.80;68.10
70947;DHT22;58605;48.700;8.760;2023-08-21T09:06:42;26.90;69.70
70947;DHT22;58605;48.700;8.760;2023-08-21T09:09:08;26.50;71.40
70947;DHT22;58605;48.700;8.760;2023-08-21T09:11:42;26.60;68.80
70947;DHT22;58605;48.700;8.760;2023-08-21T09:14:10;27.20;65.80
70947;DHT22;58605;48.700;8.760;2023-08-21T09:16:36;27.40;66.50
70947;DHT22;58605;48.700;8.760;2023-08-21T09:19:02;26.90;69.10
70947;DHT22;58605;48.700;8.760;2023-08-21T09:21:29;27.30;67.30
70947;DHT22;58605;48.700;8.760;2023-08-21T09:24:00;27.70;64.00
70947;DHT22;58605;48.700;8.760;2023-08-21T09:26:30;27.80;64.80
70947;DHT22;58605;48.700;8.760;2023-08-21T09:28:59;27.80;65.60
70947;DHT22;58605;48.700;8.760;2023-08-21T09:31:30;27.70;65.60
70947;DHT22;58605;48.700;8.760;2023-08-21T09:33:56;27.70;64.30
70947;DHT22;58605;48.700;8.760;2023-08-21T09:36:23;27.90;63.60
70947;DHT22;58605;48.700;8.760;2023-08-21T09:38:52;28.00;64.20
70947;DHT22;58605;48.700;8.760;2023-08-21T09:41:19;27.80;64.30
70947;DHT22;58605;48.700;8.760;2023-08-21T09:43:45;28.10;63.60
70947;DHT22;58605;48.700;8.760;2023-08-21T09:46:14;28.20;61.90
70947;DHT22;58605;48.700;8.760;2023-08-21T09:48:42;28.40;62.60
70947;DHT22;58605;48.700;8.760;2023-08-21T09:51:09;28.40;61.60
70947;DHT22;58605;48.700;8.760;2023-08-21T09:53:37;28.40;62.20
70947;DHT22;58605;48.700;8.760;2023-08-21T09:56:05;28.10;63.60
70947;DHT22;58605;48.700;8.760;2023-08-21T09:58:31;28.10;64.30
70947;DHT22;58605;48.700;8.760;2023-08-21T10:00:59;28.30;62.80
70947;DHT22;58605;48.700;8.760;2023-08-21T10:03:26;27.90;64.50
70947;DHT22;58605;48.700;8.760;2023-08-21T10:05:55;27.50;65.90
70947;DHT22;58605;48.700;8.760;2023-08-21T10:08:25;26.90;67.60
70947;DHT22;58605;48.700;8.760;2023-08-21T10:10:51;26.50;69.20
70947;DHT22;58605;48.700;8.760;2023-08-21T10:13:19;26.40;70.20
70947;DHT22;58605;48.700;8.760;2023-08-21T10:15:46;26.10;70.70
70947;DHT22;58605;48.700;8.760;2023-08-21T10:18:19;26.20;73.10
70947;DHT22;58605;48.700;8.760;2023-08-21T10:20:45;26.20;71.70
70947;DHT22;58605;48.700;8.760;2023-08-21T10:23:24;26.10;71.60
70947;DHT22;58605;48.700;8.760;2023-08-21T10:25:54;25.90;72.50
70947;DHT22;58605;48.700;8.760;2023-08-21T10:28:22;25.80;72.70
70947;DHT22;58605;48.700;8.760;2023-08-21T10:30:49;26.00;72.00
70947;DHT22;58605;48.700;8.760;2023-08-21T10:33:16;25.90;72.90
70947;DHT22;58605;48.700;8.760;2023-08-21T10:35:45;25.90;72.50
70947;DHT22;58605;48.700;8.760;2023-08-21T10:38:12;26.00;72.10
70947;DHT22;58605;48.700;8.760;2023-08-21T10:40:39;25.90;72.30
70947;DHT22;58605;48.700;8.760;2023-08-21T10:43:39;26.40;69.70
70947;DHT22;58605;48.700;8.760;2023-08-21T10:46:07;26.40;70.90
70947;DHT22;58605;48.700;8.760;2023-08-21T10:48:34;26.80;69.40
70947;DHT22;58605;48.700;8.760;2023-08-21T10:51:02;27.60;68.30
70947;DHT22;58605;48.700;8.760;2023-08-21T10:53:32;28.30;64.20
70947;DHT22;58605;48.700;8.760;2023-08-21T10:56:01;28.70;62.30
70947;DHT22;58605;48.700;8.760;2023-08-21T10:58:33;28.80;62.40
70947;DHT22;58605;48.700;8.760;2023-08-21T11:01:01;28.80;63.10
70947;DHT22;58605;48.700;8.760;2023-08-21T11:03:28;28.70;63.30
70947;DHT22;58605;48.700;8.760;2023-08-21T11:06:01;28.80;62.70
70947;DHT22;58605;48.700;8.760;2023-08-21T11:08:29;28.50;63.80
70947;DHT22;58605;48.700;8.760;2023-08-21T11:10:55;27.90;65.50
70947;DHT22;58605;48.700;8.760;2023-08-21T11:13:23;27.40;67.00
70947;DHT22;58605;48.700;8.760;2023-08-21T11:15:57;27.20;67.90
70947;DHT22;58605;48.700;8.760;2023-08-21T11:18:32;27.10;67.80
70947;DHT22;58605;48.700;8.760;2023-08-21T11:21:08;27.40;66.50
70947;DHT22;58605;48.700;8.760;2023-08-21T11:23:38;27.60;67.50
70947;DHT22;58605;48.700;8.760;2023-08-21T11:26:06;28.30;62.90
70947;DHT22;58605;48.700;8.760;2023-08-21T11:28:33;28.60;63.70
70947;DHT22;58605;48.700;8.760;2023-08-21T11:31:00;28.90;62.20
70947;DHT22;58605;48.700;8.760;2023-08-21T11:33:26;29.30;62.20
70947;DHT22;58605;48.700;8.760;2023-08-21T11:35:55;29.50;60.20
70947;DHT22;58605;48.700;8.760;2023-08-21T11:38:24;29.50;60.60
70947;DHT22;58605;48.700;8.760;2023-08-21T11:40:57;29.10;62.60
70947;DHT22;58605;48.700;8.760;2023-08-21T11:43:35;29.40;59.40
70947;DHT22;58605;48.700;8.760;2023-08-21T11:46:01;29.40;60.60
70947;DHT22;58605;48.700;8.760;2023-08-21T11:48:28;29.50;59.50
70947;DHT22;58605;48.700;8.760;2023-08-21T11:50:56;29.60;58.70
70947;DHT22;58605;48.700;8.760;2023-08-21T11:53:33;29.80;58.40
70947;DHT22;58605;48.700;8.760;2023-08-21T11:56:00;30.10;57.60
70947;DHT22;58605;48.700;8.760;2023-08-21T11:58:27;30.10;57.20
70947;DHT22;58605;48.700;8.760;2023-08-21T12:00:54;30.20;57.60
70947;DHT22;58605;48.700;8.760;2023-08-21T12:03:20;30.20;57.10
70947;DHT22;58605;48.700;8.760;2023-08-21T12:05:46;30.20;56.60
70947;DHT22;58605;48.700;8.760;2023-08-21T12:08:14;29.70;59.40
70947;DHT22;58605;48.700;8.760;2023-08-21T12:10:50;29.10;61.10
70947;DHT22;58605;48.700;8.760;2023-08-21T12:13:18;28.60;62.70
70947;DHT22;58605;48.700;8.760;2023-08-21T12:15:44;28.90;61.20
70947;DHT22;58605;48.700;8.760;2023-08-21T12:18:10;29.40;60.00
70947;DHT22;58605;48.700;8.760;2023-08-21T12:20:36;29.70;59.10
70947;DHT22;58605;48.700;8.760;2023-08-21T12:23:03;29.90;57.70
70947;DHT22;58605;48.700;8.760;2023-08-21T12:25:30;29.90;58.00
70947;DHT22;58605;48.700;8.760;2023-08-21T12:27:57;29.60;59.30
70947;DHT22;58605;48.700;8.760;2023-08-21T12:30:25;29.60;58.10
70947;DHT22;58605;48.700;8.760;2023-08-21T12:32:51;29.50;59.60
70947;DHT22;58605;48.700;8.760;2023-08-21T12:35:17;28.80;61.90
70947;DHT22;58605;48.700;8.760;2023-08-21T12:37:43;29.10;60.40
70947;DHT22;58605;48.700;8.760;2023-08-21T12:40:10;28.80;61.70
70947;DHT22;58605;48.700;8.760;2023-08-21T12:42:37;28.40;63.20
70947;DHT22;58605;48.700;8.760;2023-08-21T12:45:08;27.90;64.60
70947;DHT22;58605;48.700;8.760;2023-08-21T12:47:34;27.90;64.90
70947;DHT22;58605;48.700;8.760;2023-08-21T12:50:00;27.80;65.60
70947;DHT22;58605;48.700;8.760;2023-08-21T12:52:26;28.00;65.50
70947;DHT22;58605;48.700;8.760;2023-08-21T12:54:52;27.70;66.40
70947;DHT22;58605;48.700;8.760;2023-08-21T12:57:18;28.60;61.80
70947;DHT22;58605;48.700;8.760;2023-08-21T12:59:46;29.20;59.90
70947;DHT22;58605;48.700;8.760;2023-08-21T13:02:12;29.30;59.90
70947;DHT22;58605;48.700;8.760;2023-08-21T13:04:38;29.60;58.30
70947;DHT22;58605;48.700;8.760;2023-08-21T13:07:05;29.80;57.90
70947;DHT22;58605;48.700;8.760;2023-08-21T13:09:31;29.60;59.60
70947;DHT22;58605;48.700;8.760;2023-08-21T13:11:58;29.00;61.40
70947;DHT22;58605;48.700;8.760;2023-08-21T13:14:24;28.40;63.40
70947;DHT22;58605;48.700;8.760;2023-08-21T13:16:52;28.00;64.80
70947;DHT22;58605;48.700;8.760;2023-08-21T13:19:18;28.40;63.70
70947;DHT22;58605;48.700;8.760;2023-08-21T13:21:44;28.90;61.70
70947;DHT22;58605;48.700;8.760;2023-08-21T13:24:10;29.30;60.20
70947;DHT22;58605;48.700;8.760;2023-08-21T13:26:36;29.50;59.80
70947;DHT22;58605;48.700;8.760;2023-08-21T13:29:03;29.70;59.80
70947;DHT22;58605;48.700;8.760;2023-08-21T13:31:29;29.80;60.00
70947;DHT22;58605;48.700;8.760;2023-08-21T13:33:56;29.90;59.30
70947;DHT22;58605;48.700;8.760;2023-08-21T13:36:22;30.00;58.80
70947;DHT22;58605;48.700;8.760;2023-08-21T13:38:49;30.00;58.40
70947;DHT22;58605;48.700;8.760;2023-08-21T13:41:15;30.20;59.10
70947;DHT22;58605;48.700;8.760;2023-08-21T13:43:41;30.30;58.20
70947;DHT22;58605;48.700;8.760;2023-08-21T13:46:07;30.40;57.10
70947;DHT22;58605;48.700;8.760;2023-08-21T13:48:33;30.40;57.80
70947;DHT22;58605;48.700;8.760;2023-08-21T13:51:01;30.50;57.40
70947;DHT22;58605;48.700;8.760;2023-08-21T13:53:27;30.60;56.50
70947;DHT22;58605;48.700;8.760;2023-08-21T13:55:53;30.50;57.40
70947;DHT22;58605;48.700;8.760;2023-08-21T13:58:19;30.30;58.40
70947;DHT22;58605;48.700;8.760;2023-08-21T14:00:46;30.40;56.20
70947;DHT22;58605;48.700;8.760;2023-08-21T14:03:12;30.50;58.30
70947;DHT22;58605;48.700;8.760;2023-08-21T14:05:38;30.20;58.30
70947;DHT22;58605;48.700;8.760;2023-08-21T14:08:06;29.80;59.70
70947;DHT22;58605;48.700;8.760;2023-08-21T14:10:32;29.80;59.20
70947;DHT22;58605;48.700;8.760;2023-08-21T14:12:58;29.40;60.70
70947;DHT22;58605;48.700;8.760;2023-08-21T14:15:24;29.10;61.70
70947;DHT22;58605;48.700;8.760;2023-08-21T14:17:50;28.90;61.50
70947;DHT22;58605;48.700;8.760;2023-08-21T14:20:17;28.40;63.70
70947;DHT22;58605;48.700;8.760;2023-08-21T14:22:43;27.90;65.10
70947;DHT22;58605;48.700;8.760;2023-08-21T14:25:11;27.60;66.20
70947;DHT22;58605;48.700;8.760;2023-08-21T14:27:37;27.60;66.80
70947;DHT22;58605;48.700;8.760;2023-08-21T14:30:04;28.00;64.20
70947;DHT22;58605;48.700;8.760;2023-08-21T14:32:31;28.90;61.70
70947;DHT22;58605;48.700;8.760;2023-08-21T14:34:57;29.50;60.60
70947;DHT22;58605;48.700;8.760;2023-08-21T14:37:24;29.80;59.50
70947;DHT22;58605;48.700;8.760;2023-08-21T14:39:50;30.20;57.80
70947;DHT22;58605;48.700;8.760;2023-08-21T14:42:18;30.40;57.60
70947;DHT22;58605;48.700;8.760;2023-08-21T14:44:51;30.50;58.30
70947;DHT22;58605;48.700;8.760;2023-08-21T14:47:17;30.70;56.70
70947;DHT22;58605;48.700;8.760;2023-08-21T14:49:43;30.80;56.50
70947;DHT22;58605;48.700;8.760;2023-08-21T14:52:09;30.80;54.90
70947;DHT22;58605;48.700;8.760;2023-08-21T14:54:35;30.80;55.50
70947;DHT22;58605;48.700;8.760;2023-08-21T14:57:02;30.70;56.80
70947;DHT22;58605;48.700;8.760;2023-08-21T14:59:29;30.30;58.40
70947;DHT22;58605;48.700;8.760;2023-08-21T15:01:55;30.20;57.50
70947;DHT22;58605;48.700;8.760;2023-08-21T15:04:21;30.50;57.50
70947;DHT22;58605;48.700;8.760;2023-08-21T15:06:47;30.70;57.90
70947;DHT22;58605;48.700;8.760;2023-08-21T15:09:14;30.70;57.70
70947;DHT22;58605;48.700;8.760;2023-08-21T15:11:40;30.70;58.20
70947;DHT22;58605;48.700;8.760;2023-08-21T15:14:10;30.70;56.70
70947;DHT22;58605;48.700;8.760;2023-08-21T15:16:41;30.70;57.80
70947;DHT22;58605;48.700;8.760;2023-08-21T15:19:07;30.70;58.20
70947;DHT22;58605;48.700;8.760;2023-08-21T15:21:33;30.80;57.60
70947;DHT22;58605;48.700;8.760;2023-08-21T15:24:00;30.80;56.50
70947;DHT22;58605;48.700;8.760;2023-08-21T15:26:26;30.70;56.90
70947;DHT22;58605;48.700;8.760;2023-08-21T15:28:52;30.80;57.70